sensor_id;sensor_type;location;lat;lon;timestamp;P1;durP1;ratioP1;P2;durP2;ratioP2
18867;SDS011;9563;49.240;9.088;2023-02-21T00:02:08;7.67;;;3.03;;
18867;SDS011;9563;49.240;9.088;2023-02-21T00:04:52;10.80;;;3.30;;
18867;SDS011;9563;49.240;9.088;2023-02-21T00:07:38;6.27;;;3.03;;
18867;SDS011;9563;49.240;9.088;2023-02-21T00:10:22;6.37;;;2.47;;
18867;SDS011;9563;49.240;9.088;2023-02-21T00:13:07;8.40;;;2.90;;
18867;SDS011;9563;49.240;9.088;2023-02-21T00:15:51;8.10;;;3.80;;
18867;SDS011;9563;49.240;9.088;2023-02-21T00:18:35;7.83;;;3.23;;
18867;SDS011;9563;49.240;9.088;2023-02-21T00:21:20;7.50;;;3.30;;
18867;SDS011;9563;49.240;9.088;2023-02-21T00:24:06;6.47;;;3.33;;
18867;SDS011;9563;49.240;9.088;2023-02-21T00:26:51;5.33;;;3.17;;
18867;SDS011;9563;49.240;9.088;2023-02-21T00:29:35;10.73;;;3.30;;
18867;SDS011;9563;49.240;9.088;2023-02-21T00:32:19;7.13;;;3.20;;
18867;SDS011;9563;49.240;9.088;2023-02-21T00:35:03;7.83;;;3.50;;
18867;SDS011;9563;49.240;9.088;2023-02-21T00:37:48;9.97;;;3.70;;
18867;SDS011;9563;49.240;9.088;2023-02-21T00:40:34;5.70;;;3.10;;
18867;SDS011;9563;49.240;9.088;2023-02-21T00:43:19;11.13;;;2.90;;
18867;SDS011;9563;49.240;9.088;2023-02-21T00:46:10;8.53;;;2.87;;
18867;SDS011;9563;49.240;9.088;2023-02-21T00:48:54;9.90;;;3.10;;
18867;SDS011;9563;49.240;9.088;2023-02-21T00:51:38;7.20;;;3.17;;
18867;SDS011;9563;49.240;9.088;2023-02-21T00:54:23;5.50;;;2.57;;
18867;SDS011;9563;49.240;9.088;2023-02-21T00:57:08;8.40;;;3.00;;
18867;SDS011;9563;49.240;9.088;2023-02-21T00:59:52;8.13;;;2.57;;
18867;SDS011;9563;49.240;9.088;2023-02-21T01:02:37;7.30;;;2.77;;
18867;SDS011;9563;49.240;9.088;2023-02-21T01:05:21;8.97;;;2.63;;
18867;SDS011;9563;49.240;9.088;2023-02-21T01:08:05;4.93;;;2.87;;
18867;SDS011;9563;49.240;9.088;2023-02-21T01:10:49;5.27;;;3.07;;
18867;SDS011;9563;49.240;9.088;2023-02-21T01:13:35;5.33;;;2.50;;
18867;SDS011;9563;49.240;9.088;2023-02-21T01:16:19;5.97;;;2.63;;
18867;SDS011;9563;49.240;9.088;2023-02-21T01:19:03;7.73;;;3.27;;
18867;SDS011;9563;49.240;9.088;2023-02-21T01:21:48;6.83;;;2.83;;
18867;SDS011;9563;49.240;9.088;2023-02-21T01:24:32;7.20;;;2.47;;
18867;SDS011;9563;49.240;9.088;2023-02-21T01:27:16;7.30;;;3.07;;
18867;SDS011;9563;49.240;9.088;2023-02-21T01:30:02;4.90;;;2.90;;
18867;SDS011;9563;49.240;9.088;2023-02-21T01:32:46;7.43;;;2.70;;
18867;SDS011;9563;49.240;9.088;2023-02-21T01:35:31;7.70;;;3.17;;
18867;SDS011;9563;49.240;9.088;2023-02-21T01:38:15;6.50;;;2.60;;
18867;SDS011;9563;49.240;9.088;2023-02-21T01:40:59;7.23;;;2.07;;
18867;SDS011;9563;49.240;9.088;2023-02-21T01:43:55;7.03;;;2.67;;
18867;SDS011;9563;49.240;9.088;2023-02-21T01:46:42;8.67;;;3.27;;
18867;SDS011;9563;49.240;9.088;2023-02-21T01:49:26;8.50;;;2.90;;
18867;SDS011;9563;49.240;9.088;2023-02-21T01:52:12;4.80;;;2.17;;
18867;SDS011;9563;49.240;9.088;2023-02-21T01:54:56;4.73;;;2.37;;
18867;SDS011;9563;49.240;9.088;2023-02-21T01:57:41;6.30;;;2.53;;
18867;SDS011;9563;49.240;9.088;2023-02-21T02:00:28;6.80;;;2.80;;
18867;SDS011;9563;49.240;9.088;2023-02-21T02:03:15;5.70;;;2.80;;
18867;SDS011;9563;49.240;9.088;2023-02-21T02:06:03;7.07;;;2.10;;
18867;SDS011;9563;49.240;9.088;2023-02-21T02:08:49;6.37;;;2.60;;
18867;SDS011;9563;49.240;9.088;2023-02-21T02:11:37;4.63;;;2.60;;
18867;SDS011;9563;49.240;9.088;2023-02-21T02:17:40;9.77;;;3.10;;
18867;SDS011;9563;49.240;9.088;2023-02-21T02:23:58;4.87;;;2.40;;
18867;SDS011;9563;49.240;9.088;2023-02-21T02:30:22;7.00;;;2.90;;
18867;SDS011;9563;49.240;9.088;2023-02-21T02:36:23;9.57;;;3.00;;
18867;SDS011;9563;49.240;9.088;2023-02-21T02:38:55;5.47;;;2.33;;
18867;SDS011;9563;49.240;9.088;2023-02-21T02:41:28;7.80;;;2.97;;
18867;SDS011;9563;49.240;9.088;2023-02-21T02:44:08;8.93;;;2.93;;
18867;SDS011;9563;49.240;9.088;2023-02-21T02:46:40;5.40;;;2.10;;
18867;SDS011;9563;49.240;9.088;2023-02-21T02:49:09;4.87;;;2.63;;
18867;SDS011;9563;49.240;9.088;2023-02-21T02:51:41;7.10;;;2.83;;
18867;SDS011;9563;49.240;9.088;2023-02-21T02:54:09;10.63;;;2.63;;
18867;SDS011;9563;49.240;9.088;2023-02-21T02:56:35;6.97;;;2.90;;
18867;SDS011;9563;49.240;9.088;2023-02-21T02:59:03;8.63;;;2.87;;
18867;SDS011;9563;49.240;9.088;2023-02-21T03:07:28;6.47;;;2.80;;
18867;SDS011;9563;49.240;9.088;2023-02-21T03:10:04;4.33;;;2.50;;
18867;SDS011;9563;49.240;9.088;2023-02-21T03:12:37;7.73;;;3.07;;
18867;SDS011;9563;49.240;9.088;2023-02-21T03:15:10;7.20;;;2.87;;
18867;SDS011;9563;49.240;9.088;2023-02-21T03:17:43;7.83;;;2.80;;
18867;SDS011;9563;49.240;9.088;2023-02-21T03:20:16;4.27;;;2.53;;
18867;SDS011;9563;49.240;9.088;2023-02-21T03:22:45;4.03;;;2.40;;
18867;SDS011;9563;49.240;9.088;2023-02-21T03:25:13;5.23;;;2.87;;
18867;SDS011;9563;49.240;9.088;2023-02-21T03:27:41;6.63;;;3.77;;
18867;SDS011;9563;49.240;9.088;2023-02-21T03:30:09;8.37;;;3.80;;
18867;SDS011;9563;49.240;9.088;2023-02-21T03:32:38;8.73;;;3.87;;
18867;SDS011;9563;49.240;9.088;2023-02-21T03:35:08;7.03;;;4.27;;
18867;SDS011;9563;49.240;9.088;2023-02-21T03:37:35;10.07;;;4.23;;
18867;SDS011;9563;49.240;9.088;2023-02-21T03:40:05;9.37;;;3.73;;
18867;SDS011;9563;49.240;9.088;2023-02-21T03:42:34;7.33;;;3.73;;
18867;SDS011;9563;49.240;9.088;2023-02-21T03:45:01;5.80;;;3.53;;
18867;SDS011;9563;49.240;9.088;2023-02-21T03:47:27;7.90;;;4.23;;
18867;SDS011;9563;49.240;9.088;2023-02-21T03:49:54;9.17;;;3.87;;
18867;SDS011;9563;49.240;9.088;2023-02-21T03:52:21;9.03;;;3.83;;
18867;SDS011;9563;49.240;9.088;2023-02-21T03:54:48;10.50;;;3.80;;
18867;SDS011;9563;49.240;9.088;2023-02-21T03:57:16;10.80;;;4.00;;
18867;SDS011;9563;49.240;9.088;2023-02-21T03:59:43;7.87;;;3.90;;
18867;SDS011;9563;49.240;9.088;2023-02-21T04:02:10;10.77;;;4.17;;
18867;SDS011;9563;49.240;9.088;2023-02-21T04:04:37;7.27;;;4.13;;
18867;SDS011;9563;49.240;9.088;2023-02-21T04:07:03;7.67;;;3.57;;
18867;SDS011;9563;49.240;9.088;2023-02-21T04:09:30;14.30;;;3.90;;
18867;SDS011;9563;49.240;9.088;2023-02-21T04:11:57;7.60;;;3.23;;
18867;SDS011;9563;49.240;9.088;2023-02-21T04:14:25;10.17;;;3.90;;
18867;SDS011;9563;49.240;9.088;2023-02-21T04:16:52;12.40;;;4.17;;
18867;SDS011;9563;49.240;9.088;2023-02-21T04:19:19;9.60;;;3.50;;
18867;SDS011;9563;49.240;9.088;2023-02-21T04:21:46;8.10;;;3.57;;
18867;SDS011;9563;49.240;9.088;2023-02-21T04:24:13;6.43;;;3.47;;
18867;SDS011;9563;49.240;9.088;2023-02-21T04:26:40;6.00;;;3.27;;
18867;SDS011;9563;49.240;9.088;2023-02-21T04:29:07;8.43;;;3.33;;
18867;SDS011;9563;49.240;9.088;2023-02-21T04:31:35;9.53;;;3.57;;
18867;SDS011;9563;49.240;9.088;2023-02-21T04:34:02;10.43;;;3.57;;
18867;SDS011;9563;49.240;9.088;2023-02-21T04:36:29;6.73;;;3.73;;
18867;SDS011;9563;49.240;9.088;2023-02-21T04:38:56;7.60;;;3.77;;
18867;SDS011;9563;49.240;9.088;2023-02-21T04:41:23;8.27;;;2.73;;
18867;SDS011;9563;49.240;9.088;2023-02-21T04:43:50;9.20;;;3.60;;
18867;SDS011;9563;49.240;9.088;2023-02-21T04:46:17;11.17;;;4.93;;
18867;SDS011;9563;49.240;9.088;2023-02-21T04:48:47;9.83;;;3.50;;
18867;SDS011;9563;49.240;9.088;2023-02-21T04:51:15;8.93;;;3.50;;
18867;SDS011;9563;49.240;9.088;2023-02-21T04:53:45;13.50;;;3.53;;
18867;SDS011;9563;49.240;9.088;2023-02-21T04:56:13;9.93;;;3.70;;
18867;SDS011;9563;49.240;9.088;2023-02-21T04:58:40;8.03;;;3.30;;
18867;SDS011;9563;49.240;9.088;2023-02-21T05:01:09;12.17;;;3.97;;
18867;SDS011;9563;49.240;9.088;2023-02-21T05:03:36;11.97;;;3.40;;
18867;SDS011;9563;49.240;9.088;2023-02-21T05:06:04;6.23;;;3.57;;
18867;SDS011;9563;49.240;9.088;2023-02-21T05:08:31;7.77;;;2.83;;
18867;SDS011;9563;49.240;9.088;2023-02-21T05:10:58;7.43;;;3.80;;
18867;SDS011;9563;49.240;9.088;2023-02-21T05:13:25;7.93;;;3.90;;
18867;SDS011;9563;49.240;9.088;2023-02-21T05:15:52;10.57;;;4.03;;
18867;SDS011;9563;49.240;9.088;2023-02-21T05:18:19;6.47;;;3.63;;
18867;SDS011;9563;49.240;9.088;2023-02-21T05:20:52;9.87;;;3.93;;
18867;SDS011;9563;49.240;9.088;2023-02-21T05:23:21;12.37;;;4.20;;
18867;SDS011;9563;49.240;9.088;2023-02-21T05:25:57;7.10;;;3.87;;
18867;SDS011;9563;49.240;9.088;2023-02-21T05:28:25;9.57;;;4.70;;
18867;SDS011;9563;49.240;9.088;2023-02-21T05:30:52;6.87;;;3.90;;
18867;SDS011;9563;49.240;9.088;2023-02-21T05:33:18;9.90;;;4.20;;
18867;SDS011;9563;49.240;9.088;2023-02-21T05:35:45;9.30;;;4.20;;
18867;SDS011;9563;49.240;9.088;2023-02-21T05:38:12;9.13;;;4.37;;
18867;SDS011;9563;49.240;9.088;2023-02-21T05:40:41;9.47;;;4.03;;
18867;SDS011;9563;49.240;9.088;2023-02-21T05:43:08;9.93;;;3.63;;
18867;SDS011;9563;49.240;9.088;2023-02-21T05:45:34;7.83;;;3.87;;
18867;SDS011;9563;49.240;9.088;2023-02-21T05:48:01;7.90;;;4.30;;
18867;SDS011;9563;49.240;9.088;2023-02-21T05:50:29;9.27;;;4.50;;
18867;SDS011;9563;49.240;9.088;2023-02-21T05:52:56;14.13;;;5.97;;
18867;SDS011;9563;49.240;9.088;2023-02-21T05:55:23;12.97;;;5.43;;
18867;SDS011;9563;49.240;9.088;2023-02-21T05:57:52;14.03;;;5.60;;
18867;SDS011;9563;49.240;9.088;2023-02-21T06:00:21;11.83;;;5.37;;
18867;SDS011;9563;49.240;9.088;2023-02-21T06:02:49;24.17;;;4.53;;
18867;SDS011;9563;49.240;9.088;2023-02-21T06:05:17;13.50;;;4.13;;
18867;SDS011;9563;49.240;9.088;2023-02-21T06:07:44;12.63;;;4.37;;
18867;SDS011;9563;49.240;9.088;2023-02-21T06:10:13;13.23;;;4.17;;
18867;SDS011;9563;49.240;9.088;2023-02-21T06:12:41;12.33;;;4.20;;
18867;SDS011;9563;49.240;9.088;2023-02-21T06:15:09;10.57;;;4.63;;
18867;SDS011;9563;49.240;9.088;2023-02-21T06:17:37;10.10;;;4.67;;
18867;SDS011;9563;49.240;9.088;2023-02-21T06:20:04;13.60;;;4.10;;
18867;SDS011;9563;49.240;9.088;2023-02-21T06:22:32;15.83;;;4.67;;
18867;SDS011;9563;49.240;9.088;2023-02-21T06:24:59;8.43;;;3.43;;
18867;SDS011;9563;49.240;9.088;2023-02-21T06:27:26;14.00;;;3.87;;
18867;SDS011;9563;49.240;9.088;2023-02-21T06:29:53;11.33;;;5.17;;
18867;SDS011;9563;49.240;9.088;2023-02-21T06:32:21;7.80;;;4.70;;
18867;SDS011;9563;49.240;9.088;2023-02-21T06:34:48;9.83;;;4.37;;
18867;SDS011;9563;49.240;9.088;2023-02-21T06:37:16;11.70;;;4.30;;
18867;SDS011;9563;49.240;9.088;2023-02-21T06:39:43;11.07;;;4.10;;
18867;SDS011;9563;49.240;9.088;2023-02-21T06:42:11;9.13;;;3.93;;
18867;SDS011;9563;49.240;9.088;2023-02-21T06:44:39;10.73;;;4.20;;
18867;SDS011;9563;49.240;9.088;2023-02-21T06:47:07;8.50;;;4.27;;
18867;SDS011;9563;49.240;9.088;2023-02-21T06:49:36;8.87;;;3.90;;
18867;SDS011;9563;49.240;9.088;2023-02-21T06:52:03;13.03;;;3.87;;
18867;SDS011;9563;49.240;9.088;2023-02-21T06:54:30;8.60;;;4.10;;
18867;SDS011;9563;49.240;9.088;2023-02-21T06:56:57;10.00;;;4.47;;
18867;SDS011;9563;49.240;9.088;2023-02-21T06:59:25;12.47;;;4.47;;
18867;SDS011;9563;49.240;9.088;2023-02-21T07:01:53;9.07;;;3.90;;
18867;SDS011;9563;49.240;9.088;2023-02-21T07:04:19;14.20;;;5.63;;
18867;SDS011;9563;49.240;9.088;2023-02-21T07:06:48;11.63;;;3.87;;
18867;SDS011;9563;49.240;9.088;2023-02-21T07:09:15;10.00;;;4.43;;
18867;SDS011;9563;49.240;9.088;2023-02-21T07:11:42;11.07;;;3.93;;
18867;SDS011;9563;49.240;9.088;2023-02-21T07:14:11;8.17;;;3.60;;
18867;SDS011;9563;49.240;9.088;2023-02-21T07:16:38;12.17;;;4.60;;
18867;SDS011;9563;49.240;9.088;2023-02-21T07:19:05;12.33;;;5.67;;
18867;SDS011;9563;49.240;9.088;2023-02-21T07:21:32;29.83;;;11.23;;
18867;SDS011;9563;49.240;9.088;2023-02-21T07:24:00;25.97;;;10.30;;
18867;SDS011;9563;49.240;9.088;2023-02-21T07:26:27;30.17;;;13.50;;
18867;SDS011;9563;49.240;9.088;2023-02-21T07:28:54;20.60;;;8.60;;
18867;SDS011;9563;49.240;9.088;2023-02-21T07:31:21;20.47;;;8.03;;
18867;SDS011;9563;49.240;9.088;2023-02-21T07:33:48;23.77;;;8.70;;
18867;SDS011;9563;49.240;9.088;2023-02-21T07:36:15;22.17;;;8.27;;
18867;SDS011;9563;49.240;9.088;2023-02-21T07:38:42;18.73;;;8.63;;
18867;SDS011;9563;49.240;9.088;2023-02-21T07:41:12;20.07;;;9.47;;
18867;SDS011;9563;49.240;9.088;2023-02-21T07:43:40;22.60;;;9.80;;
18867;SDS011;9563;49.240;9.088;2023-02-21T07:46:08;24.73;;;11.80;;
18867;SDS011;9563;49.240;9.088;2023-02-21T07:48:36;22.73;;;10.57;;
18867;SDS011;9563;49.240;9.088;2023-02-21T07:51:02;25.10;;;10.37;;
18867;SDS011;9563;49.240;9.088;2023-02-21T07:53:31;21.20;;;9.07;;
18867;SDS011;9563;49.240;9.088;2023-02-21T07:55:58;16.60;;;7.67;;
18867;SDS011;9563;49.240;9.088;2023-02-21T07:58:27;15.40;;;8.37;;
18867;SDS011;9563;49.240;9.088;2023-02-21T08:00:54;14.97;;;7.13;;
18867;SDS011;9563;49.240;9.088;2023-02-21T08:03:20;18.00;;;6.33;;
18867;SDS011;9563;49.240;9.088;2023-02-21T08:05:47;13.23;;;6.97;;
18867;SDS011;9563;49.240;9.088;2023-02-21T08:08:14;15.77;;;7.67;;
18867;SDS011;9563;49.240;9.088;2023-02-21T08:10:42;19.35;;;9.40;;
18867;SDS011;9563;49.240;9.088;2023-02-21T08:13:09;14.38;;;7.57;;
18867;SDS011;9563;49.240;9.088;2023-02-21T08:15:37;13.60;;;6.30;;
18867;SDS011;9563;49.240;9.088;2023-02-21T08:18:04;14.60;;;6.00;;
18867;SDS011;9563;49.240;9.088;2023-02-21T08:20:31;10.93;;;5.90;;
18867;SDS011;9563;49.240;9.088;2023-02-21T08:22:59;17.25;;;6.75;;
18867;SDS011;9563;49.240;9.088;2023-02-21T08:25:25;12.63;;;6.30;;
18867;SDS011;9563;49.240;9.088;2023-02-21T08:27:52;13.27;;;6.28;;
18867;SDS011;9563;49.240;9.088;2023-02-21T08:30:19;15.50;;;6.45;;
18867;SDS011;9563;49.240;9.088;2023-02-21T08:32:48;10.73;;;5.50;;
18867;SDS011;9563;49.240;9.088;2023-02-21T08:35:16;11.90;;;5.30;;
18867;SDS011;9563;49.240;9.088;2023-02-21T08:37:44;14.10;;;5.28;;
18867;SDS011;9563;49.240;9.088;2023-02-21T08:40:11;7.68;;;4.18;;
18867;SDS011;9563;49.240;9.088;2023-02-21T08:42:38;9.38;;;4.40;;
18867;SDS011;9563;49.240;9.088;2023-02-21T08:45:06;9.32;;;4.75;;
18867;SDS011;9563;49.240;9.088;2023-02-21T08:47:34;10.25;;;4.38;;
18867;SDS011;9563;49.240;9.088;2023-02-21T08:50:03;10.77;;;4.75;;
18867;SDS011;9563;49.240;9.088;2023-02-21T08:52:31;9.65;;;4.40;;
18867;SDS011;9563;49.240;9.088;2023-02-21T08:54:58;8.98;;;4.40;;
18867;SDS011;9563;49.240;9.088;2023-02-21T08:57:25;12.45;;;4.75;;
18867;SDS011;9563;49.240;9.088;2023-02-21T08:59:52;8.90;;;4.45;;
18867;SDS011;9563;49.240;9.088;2023-02-21T09:02:20;9.07;;;4.85;;
18867;SDS011;9563;49.240;9.088;2023-02-21T09:04:49;17.02;;;4.35;;
18867;SDS011;9563;49.240;9.088;2023-02-21T09:07:19;8.65;;;4.57;;
18867;SDS011;9563;49.240;9.088;2023-02-21T09:09:47;8.88;;;4.53;;
18867;SDS011;9563;49.240;9.088;2023-02-21T09:12:14;10.13;;;5.03;;
18867;SDS011;9563;49.240;9.088;2023-02-21T09:14:42;9.07;;;4.28;;
18867;SDS011;9563;49.240;9.088;2023-02-21T09:17:11;12.63;;;4.53;;
18867;SDS011;9563;49.240;9.088;2023-02-21T09:19:38;8.45;;;4.30;;
18867;SDS011;9563;49.240;9.088;2023-02-21T09:22:06;9.25;;;4.60;;
18867;SDS011;9563;49.240;9.088;2023-02-21T09:24:35;8.85;;;4.30;;
18867;SDS011;9563;49.240;9.088;2023-02-21T09:27:02;10.40;;;4.50;;
18867;SDS011;9563;49.240;9.088;2023-02-21T09:29:30;12.35;;;4.70;;
18867;SDS011;9563;49.240;9.088;2023-02-21T09:31:58;13.00;;;4.95;;
18867;SDS011;9563;49.240;9.088;2023-02-21T09:34:25;10.98;;;5.18;;
18867;SDS011;9563;49.240;9.088;2023-02-21T09:36:53;10.07;;;5.13;;
18867;SDS011;9563;49.240;9.088;2023-02-21T09:39:20;10.65;;;5.25;;
18867;SDS011;9563;49.240;9.088;2023-02-21T09:41:49;10.55;;;5.40;;
18867;SDS011;9563;49.240;9.088;2023-02-21T09:44:22;12.20;;;4.93;;
18867;SDS011;9563;49.240;9.088;2023-02-21T09:46:53;12.20;;;5.38;;
18867;SDS011;9563;49.240;9.088;2023-02-21T09:49:24;11.02;;;5.45;;
18867;SDS011;9563;49.240;9.088;2023-02-21T09:51:53;14.35;;;5.32;;
18867;SDS011;9563;49.240;9.088;2023-02-21T09:54:23;18.10;;;5.55;;
18867;SDS011;9563;49.240;9.088;2023-02-21T09:56:54;12.75;;;6.00;;
18867;SDS011;9563;49.240;9.088;2023-02-21T09:59:25;17.67;;;4.97;;
18867;SDS011;9563;49.240;9.088;2023-02-21T10:01:55;11.02;;;5.07;;
18867;SDS011;9563;49.240;9.088;2023-02-21T10:04:31;11.38;;;5.20;;
18867;SDS011;9563;49.240;9.088;2023-02-21T10:07:07;11.07;;;5.50;;
18867;SDS011;9563;49.240;9.088;2023-02-21T10:09:40;12.80;;;5.85;;
18867;SDS011;9563;49.240;9.088;2023-02-21T10:12:15;12.05;;;5.13;;
18867;SDS011;9563;49.240;9.088;2023-02-21T10:15:07;12.10;;;5.57;;
18867;SDS011;9563;49.240;9.088;2023-02-21T10:18:00;10.77;;;5.78;;
18867;SDS011;9563;49.240;9.088;2023-02-21T10:20:34;15.27;;;6.03;;
18867;SDS011;9563;49.240;9.088;2023-02-21T10:23:04;11.65;;;6.10;;
18867;SDS011;9563;49.240;9.088;2023-02-21T10:25:41;14.50;;;6.10;;
18867;SDS011;9563;49.240;9.088;2023-02-21T10:28:13;11.95;;;5.38;;
18867;SDS011;9563;49.240;9.088;2023-02-21T10:30:43;19.10;;;6.25;;
18867;SDS011;9563;49.240;9.088;2023-02-21T10:33:12;10.50;;;6.32;;
18867;SDS011;9563;49.240;9.088;2023-02-21T10:35:39;14.10;;;5.93;;
18867;SDS011;9563;49.240;9.088;2023-02-21T10:38:07;15.15;;;6.32;;
18867;SDS011;9563;49.240;9.088;2023-02-21T10:40:37;14.88;;;6.63;;
18867;SDS011;9563;49.240;9.088;2023-02-21T10:43:08;13.75;;;6.25;;
18867;SDS011;9563;49.240;9.088;2023-02-21T10:45:40;14.38;;;6.32;;
18867;SDS011;9563;49.240;9.088;2023-02-21T10:48:13;13.23;;;6.35;;
18867;SDS011;9563;49.240;9.088;2023-02-21T10:50:43;14.25;;;6.80;;
18867;SDS011;9563;49.240;9.088;2023-02-21T10:53:21;14.32;;;6.38;;
18867;SDS011;9563;49.240;9.088;2023-02-21T10:56:14;9.70;;;5.80;;
18867;SDS011;9563;49.240;9.088;2023-02-21T10:58:51;13.07;;;6.03;;
18867;SDS011;9563;49.240;9.088;2023-02-21T11:01:22;13.32;;;6.57;;
18867;SDS011;9563;49.240;9.088;2023-02-21T11:03:58;16.02;;;6.63;;
18867;SDS011;9563;49.240;9.088;2023-02-21T11:06:31;14.55;;;6.43;;
18867;SDS011;9563;49.240;9.088;2023-02-21T11:08:59;17.80;;;6.20;;
18867;SDS011;9563;49.240;9.088;2023-02-21T11:11:31;13.95;;;6.10;;
18867;SDS011;9563;49.240;9.088;2023-02-21T11:14:06;13.88;;;6.30;;
18867;SDS011;9563;49.240;9.088;2023-02-21T11:16:57;11.60;;;6.05;;
18867;SDS011;9563;49.240;9.088;2023-02-21T11:19:41;15.80;;;5.97;;
18867;SDS011;9563;49.240;9.088;2023-02-21T11:22:09;11.05;;;5.57;;
18867;SDS011;9563;49.240;9.088;2023-02-21T11:24:44;17.25;;;5.88;;
18867;SDS011;9563;49.240;9.088;2023-02-21T11:27:27;9.75;;;5.90;;
18867;SDS011;9563;49.240;9.088;2023-02-21T11:29:56;10.80;;;6.05;;
18867;SDS011;9563;49.240;9.088;2023-02-21T11:32:28;14.70;;;5.88;;
18867;SDS011;9563;49.240;9.088;2023-02-21T11:35:02;11.18;;;5.35;;
18867;SDS011;9563;49.240;9.088;2023-02-21T11:37:47;8.23;;;4.72;;
18867;SDS011;9563;49.240;9.088;2023-02-21T11:40:21;10.40;;;5.35;;
18867;SDS011;9563;49.240;9.088;2023-02-21T11:42:49;9.90;;;5.40;;
18867;SDS011;9563;49.240;9.088;2023-02-21T11:45:18;13.30;;;6.22;;
18867;SDS011;9563;49.240;9.088;2023-02-21T11:47:52;9.30;;;4.97;;
18867;SDS011;9563;49.240;9.088;2023-02-21T11:50:24;12.57;;;4.40;;
18867;SDS011;9563;49.240;9.088;2023-02-21T11:52:54;8.82;;;4.38;;
18867;SDS011;9563;49.240;9.088;2023-02-21T11:55:27;8.00;;;4.32;;
18867;SDS011;9563;49.240;9.088;2023-02-21T11:57:57;8.55;;;4.10;;
18867;SDS011;9563;49.240;9.088;2023-02-21T12:00:35;11.90;;;4.43;;
18867;SDS011;9563;49.240;9.088;2023-02-21T12:03:16;9.52;;;4.47;;
18867;SDS011;9563;49.240;9.088;2023-02-21T12:05:56;8.73;;;4.30;;
18867;SDS011;9563;49.240;9.088;2023-02-21T12:11:25;8.18;;;4.20;;
18867;SDS011;9563;49.240;9.088;2023-02-21T12:14:06;10.85;;;4.70;;
18867;SDS011;9563;49.240;9.088;2023-02-21T12:16:44;10.20;;;4.18;;
18867;SDS011;9563;49.240;9.088;2023-02-21T12:19:29;15.73;;;4.85;;
18867;SDS011;9563;49.240;9.088;2023-02-21T12:22:08;11.00;;;4.45;;
18867;SDS011;9563;49.240;9.088;2023-02-21T12:24:47;10.38;;;4.28;;
18867;SDS011;9563;49.240;9.088;2023-02-21T12:27:25;7.45;;;3.88;;
18867;SDS011;9563;49.240;9.088;2023-02-21T12:30:01;8.27;;;3.88;;
18867;SDS011;9563;49.240;9.088;2023-02-21T12:32:47;9.38;;;3.80;;
18867;SDS011;9563;49.240;9.088;2023-02-21T12:35:36;8.27;;;3.58;;
18867;SDS011;9563;49.240;9.088;2023-02-21T12:38:37;9.00;;;4.18;;
18867;SDS011;9563;49.240;9.088;2023-02-21T12:41:22;8.32;;;4.25;;
18867;SDS011;9563;49.240;9.088;2023-02-21T12:44:11;7.10;;;3.38;;
18867;SDS011;9563;49.240;9.088;2023-02-21T12:46:41;10.63;;;3.75;;
18867;SDS011;9563;49.240;9.088;2023-02-21T12:49:15;6.40;;;3.30;;
18867;SDS011;9563;49.240;9.088;2023-02-21T12:51:49;10.75;;;3.70;;
18867;SDS011;9563;49.240;9.088;2023-02-21T12:54:21;9.70;;;3.88;;
18867;SDS011;9563;49.240;9.088;2023-02-21T12:56:53;8.23;;;3.60;;
18867;SDS011;9563;49.240;9.088;2023-02-21T12:59:27;11.25;;;4.07;;
18867;SDS011;9563;49.240;9.088;2023-02-21T13:01:57;8.15;;;4.05;;
18867;SDS011;9563;49.240;9.088;2023-02-21T13:04:31;9.70;;;4.00;;
18867;SDS011;9563;49.240;9.088;2023-02-21T13:07:05;10.80;;;4.43;;
18867;SDS011;9563;49.240;9.088;2023-02-21T13:09:50;8.25;;;4.38;;
18867;SDS011;9563;49.240;9.088;2023-02-21T13:12:22;11.55;;;4.43;;
18867;SDS011;9563;49.240;9.088;2023-02-21T13:14:53;8.48;;;4.22;;
18867;SDS011;9563;49.240;9.088;2023-02-21T13:17:24;10.95;;;4.13;;
18867;SDS011;9563;49.240;9.088;2023-02-21T13:19:52;7.25;;;3.90;;
18867;SDS011;9563;49.240;9.088;2023-02-21T13:25:51;8.48;;;4.45;;
18867;SDS011;9563;49.240;9.088;2023-02-21T13:28:29;7.72;;;4.05;;
18867;SDS011;9563;49.240;9.088;2023-02-21T13:31:00;8.43;;;4.05;;
18867;SDS011;9563;49.240;9.088;2023-02-21T13:33:34;8.38;;;3.30;;
18867;SDS011;9563;49.240;9.088;2023-02-21T13:36:14;9.73;;;5.13;;
18867;SDS011;9563;49.240;9.088;2023-02-21T13:38:46;9.13;;;3.90;;
18867;SDS011;9563;49.240;9.088;2023-02-21T13:41:26;9.20;;;4.03;;
18867;SDS011;9563;49.240;9.088;2023-02-21T13:43:55;9.82;;;4.38;;
18867;SDS011;9563;49.240;9.088;2023-02-21T13:46:39;7.90;;;3.65;;
18867;SDS011;9563;49.240;9.088;2023-02-21T13:49:35;10.50;;;4.75;;
18867;SDS011;9563;49.240;9.088;2023-02-21T14:07:08;6.50;;;4.03;;
18867;SDS011;9563;49.240;9.088;2023-02-21T14:09:35;11.85;;;4.20;;
18867;SDS011;9563;49.240;9.088;2023-02-21T14:12:06;10.32;;;4.15;;
18867;SDS011;9563;49.240;9.088;2023-02-21T14:14:37;11.98;;;3.63;;
18867;SDS011;9563;49.240;9.088;2023-02-21T14:17:08;10.73;;;3.40;;
18867;SDS011;9563;49.240;9.088;2023-02-21T14:19:40;8.55;;;3.92;;
18867;SDS011;9563;49.240;9.088;2023-02-21T14:22:10;9.35;;;4.10;;
18867;SDS011;9563;49.240;9.088;2023-02-21T14:24:41;8.10;;;3.15;;
18867;SDS011;9563;49.240;9.088;2023-02-21T14:35:58;7.90;;;3.47;;
18867;SDS011;9563;49.240;9.088;2023-02-21T14:38:31;9.05;;;3.78;;
18867;SDS011;9563;49.240;9.088;2023-02-21T14:41:04;10.93;;;4.20;;
18867;SDS011;9563;49.240;9.088;2023-02-21T14:43:52;6.75;;;3.50;;
18867;SDS011;9563;49.240;9.088;2023-02-21T14:49:49;8.77;;;4.05;;
18867;SDS011;9563;49.240;9.088;2023-02-21T14:52:49;8.23;;;3.63;;
18867;SDS011;9563;49.240;9.088;2023-02-21T14:56:02;7.53;;;3.80;;
18867;SDS011;9563;49.240;9.088;2023-02-21T15:01:53;11.45;;;4.10;;
18867;SDS011;9563;49.240;9.088;2023-02-21T15:04:25;8.35;;;3.78;;
18867;SDS011;9563;49.240;9.088;2023-02-21T15:10:14;11.43;;;4.25;;
18867;SDS011;9563;49.240;9.088;2023-02-21T15:13:02;10.90;;;3.90;;
18867;SDS011;9563;49.240;9.088;2023-02-21T15:15:45;9.07;;;3.53;;
18867;SDS011;9563;49.240;9.088;2023-02-21T15:18:22;10.07;;;4.22;;
18867;SDS011;9563;49.240;9.088;2023-02-21T15:27:55;11.07;;;3.70;;
18867;SDS011;9563;49.240;9.088;2023-02-21T15:40:20;8.20;;;3.22;;
